createdAt,value
2019-01-22T00:00:57.481Z,21.20
2019-01-22T00:03:24.257Z,23.60
2019-01-22T00:05:51.019Z,21.75
2019-01-22T00:08:17.796Z,19.62
2019-01-22T00:10:44.564Z,19.30
2019-01-22T00:13:11.333Z,23.05
2019-01-22T00:15:38.096Z,22.17
2019-01-22T00:18:04.890Z,21.10
2019-01-22T00:20:31.704Z,25.17
2019-01-22T00:23:02.822Z,23.57
2019-01-22T00:25:25.245Z,19.73
2019-01-22T00:27:52.001Z,24.00
2019-01-22T00:30:18.804Z,20.75
2019-01-22T00:32:45.578Z,18.27
2019-01-22T00:35:12.335Z,23.62
2019-01-22T00:37:39.377Z,20.70
2019-01-22T00:40:07.985Z,18.15
2019-01-22T00:42:34.743Z,17.60
2019-01-22T00:45:01.526Z,18.60
2019-01-22T00:47:28.285Z,19.10
2019-01-22T00:49:55.040Z,17.65
2019-01-22T00:52:21.803Z,17.20
2019-01-22T00:54:48.592Z,17.87
2019-01-22T00:57:15.341Z,23.45
2019-01-22T00:59:42.115Z,20.00
2019-01-22T01:02:08.888Z,16.87
2019-01-22T01:04:35.662Z,24.67
2019-01-22T01:07:02.445Z,21.00
2019-01-22T01:09:29.208Z,24.67
2019-01-22T01:11:55.968Z,22.50
2019-01-22T01:14:22.745Z,20.10
2019-01-22T01:16:49.501Z,22.80
2019-01-22T01:19:16.279Z,19.60
2019-01-22T01:21:43.078Z,19.50
2019-01-22T01:24:09.852Z,18.25
2019-01-22T01:26:36.613Z,18.77
2019-01-22T01:29:03.392Z,18.50
2019-01-22T01:31:30.157Z,19.80
2019-01-22T01:33:56.904Z,18.12
2019-01-22T01:36:23.659Z,18.27
2019-01-22T01:38:50.428Z,23.62
2019-01-22T01:41:17.189Z,18.95
2019-01-22T01:43:43.965Z,18.80
2019-01-22T01:46:10.727Z,18.70
2019-01-22T01:48:37.488Z,21.95
2019-01-22T01:51:04.296Z,19.00
2019-01-22T01:53:31.081Z,17.82
2019-01-22T01:55:57.828Z,18.55
2019-01-22T01:58:24.590Z,17.80
2019-01-22T02:00:51.396Z,19.32
2019-01-22T02:03:18.150Z,23.30
2019-01-22T02:05:44.925Z,18.42
2019-01-22T02:08:11.677Z,20.20
2019-01-22T02:10:38.940Z,24.92
2019-01-22T02:13:09.695Z,21.07
2019-01-22T02:15:45.928Z,19.87
2019-01-22T02:18:32.604Z,19.12
2019-01-22T02:21:24.988Z,19.82
2019-01-22T02:24:04.972Z,19.62
2019-01-22T02:27:00.421Z,19.02
2019-01-22T02:29:37.868Z,20.10
2019-01-22T02:32:28.243Z,19.23
2019-01-22T02:35:26.353Z,18.87
2019-01-22T02:38:22.680Z,21.48
2019-01-22T02:41:03.312Z,19.98
2019-01-22T02:43:56.492Z,20.30
2019-01-22T02:46:33.510Z,21.90
2019-01-22T02:49:20.617Z,22.70
2019-01-22T02:52:13.433Z,22.37
2019-01-22T02:54:50.325Z,21.77
2019-01-22T02:57:42.316Z,22.73
2019-01-22T03:00:53.041Z,22.98
2019-01-22T03:03:35.488Z,23.70
2019-01-22T03:06:22.993Z,23.90
2019-01-22T03:09:29.736Z,24.95
2019-01-22T03:12:06.006Z,26.10
2019-01-22T03:14:52.620Z,24.80
2019-01-22T03:17:31.381Z,28.30
2019-01-22T03:20:08.781Z,25.80
2019-01-22T03:23:03.448Z,41.70
2019-01-22T03:25:47.675Z,44.70
2019-01-22T03:28:33.944Z,31.30
2019-01-22T03:31:28.662Z,30.25
2019-01-22T03:34:11.580Z,27.85
2019-01-22T03:37:02.667Z,30.85
2019-01-22T03:39:52.286Z,28.40
2019-01-22T03:43:00.931Z,29.45
2019-01-22T03:45:56.654Z,29.92
2019-01-22T03:48:37.921Z,28.87
2019-01-22T03:51:19.516Z,41.10
2019-01-22T03:53:57.724Z,31.48
2019-01-22T03:56:34.812Z,32.33
2019-01-22T03:59:01.574Z,31.30
2019-01-22T04:01:30.325Z,43.85
2019-01-22T04:03:57.100Z,35.78
2019-01-22T04:06:31.062Z,42.35
2019-01-22T04:09:00.669Z,34.90
2019-01-22T04:11:32.958Z,44.40
2019-01-22T04:13:59.725Z,45.70
2019-01-22T04:16:26.518Z,44.58
2019-01-22T04:18:53.265Z,35.80
2019-01-22T04:21:23.084Z,41.55
2019-01-22T04:24:02.028Z,43.08
2019-01-22T04:26:43.164Z,33.40
2019-01-22T04:29:35.914Z,42.05
2019-01-22T04:32:14.613Z,45.90
2019-01-22T04:34:51.856Z,35.90
2019-01-22T04:37:48.524Z,44.35
2019-01-22T04:40:25.835Z,44.00
2019-01-22T04:43:29.824Z,36.50
2019-01-22T04:46:31.328Z,44.53
2019-01-22T04:49:09.522Z,45.95
2019-01-22T04:51:58.492Z,33.30
2019-01-22T04:54:34.962Z,42.08
2019-01-22T04:57:11.841Z,44.95
2019-01-22T04:59:52.870Z,34.40
2019-01-22T05:02:43.264Z,44.85
2019-01-22T05:05:20.993Z,46.77
2019-01-22T05:08:05.882Z,34.90
2019-01-22T05:10:47.865Z,43.10
2019-01-22T05:13:46.142Z,45.98
2019-01-22T05:16:37.164Z,31.97
2019-01-22T05:19:32.743Z,42.15
2019-01-22T05:22:18.873Z,42.67
2019-01-22T05:25:18.968Z,34.00
2019-01-22T05:28:16.905Z,41.63
2019-01-22T05:30:55.165Z,41.60
2019-01-22T05:33:33.328Z,40.95
2019-01-22T05:36:26.229Z,31.20
2019-01-22T05:39:10.834Z,41.37
2019-01-22T05:41:49.216Z,43.30
2019-01-22T05:44:32.444Z,35.90
2019-01-22T05:47:39.576Z,42.55
2019-01-22T05:50:31.708Z,40.85
2019-01-22T05:53:19.397Z,32.83
2019-01-22T05:55:46.821Z,39.95
2019-01-22T05:58:38.284Z,42.70
2019-01-22T06:01:13.996Z,35.40
2019-01-22T06:04:03.189Z,41.90
2019-01-22T06:07:10.301Z,42.45
2019-01-22T06:10:10.136Z,32.60
2019-01-22T06:13:05.705Z,39.73
2019-01-22T06:15:49.430Z,33.93
2019-01-22T06:18:24.990Z,43.40
2019-01-22T06:21:19.613Z,34.40
2019-01-22T06:23:59.046Z,40.78
2019-01-22T06:26:35.265Z,41.97
2019-01-22T06:29:42.221Z,40.70
2019-01-22T06:32:36.157Z,36.20
2019-01-22T06:35:15.554Z,42.13
2019-01-22T06:37:53.259Z,43.38
2019-01-22T06:40:46.950Z,36.00
2019-01-22T06:43:29.701Z,42.45
2019-01-22T06:46:13.900Z,35.60
2019-01-22T06:48:57.632Z,44.88
2019-01-22T06:51:52.021Z,44.10
2019-01-22T06:54:44.260Z,36.17
2019-01-22T06:57:52.065Z,45.48
2019-01-22T07:00:49.480Z,43.13
2019-01-22T07:03:38.228Z,42.65
2019-01-22T07:06:22.518Z,44.30
2019-01-22T07:09:22.133Z,34.67
2019-01-22T07:12:32.494Z,40.67
2019-01-22T07:15:28.326Z,42.40
2019-01-22T07:18:13.293Z,31.20
2019-01-22T07:21:09.758Z,39.90
2019-01-22T07:24:06.725Z,41.40
2019-01-22T07:26:44.580Z,40.30
2019-01-22T07:29:35.486Z,35.70
2019-01-22T07:32:12.289Z,42.50
2019-01-22T07:35:02.298Z,41.33
2019-01-22T07:37:51.918Z,35.00
2019-01-22T07:40:51.852Z,41.87
2019-01-22T07:43:25.833Z,43.83
2019-01-22T07:46:11.577Z,42.33
2019-01-22T07:48:46.992Z,34.50
2019-01-22T07:51:26.965Z,41.68
2019-01-22T07:54:12.552Z,42.95
2019-01-22T07:56:47.316Z,36.90
2019-01-22T07:59:37.924Z,41.58
2019-01-22T08:02:30.816Z,33.67
2019-01-22T08:05:09.824Z,44.42
2019-01-22T08:07:57.704Z,41.70
2019-01-22T08:10:38.728Z,35.60
2019-01-22T08:13:25.250Z,43.78
2019-01-22T08:16:09.152Z,42.93
2019-01-22T08:18:53.842Z,34.00
2019-01-22T08:21:30.620Z,44.90
2019-01-22T08:24:08.604Z,44.20
2019-01-22T08:26:53.570Z,35.33
2019-01-22T08:29:53.605Z,41.53
2019-01-22T08:33:02.576Z,38.83
2019-01-22T08:35:48.608Z,34.50
2019-01-22T08:38:33.397Z,49.25
2019-01-22T08:41:39.400Z,40.67
2019-01-22T08:44:37.670Z,31.50
2019-01-22T08:47:16.057Z,37.50
2019-01-22T08:50:11.533Z,38.17
2019-01-22T08:53:00.180Z,28.60
2019-01-22T08:55:41.169Z,37.13
2019-01-22T08:58:37.224Z,38.05
2019-01-22T09:01:35.643Z,31.90
2019-01-22T09:04:29.982Z,35.40
2019-01-22T09:07:12.970Z,36.75
2019-01-22T09:10:13.568Z,28.83
2019-01-22T09:12:55.938Z,34.55
2019-01-22T09:15:40.415Z,34.48
2019-01-22T09:18:34.445Z,36.80
2019-01-22T09:21:22.107Z,30.03
2019-01-22T09:23:57.130Z,35.70
2019-01-22T09:27:04.071Z,39.38
2019-01-22T09:30:01.482Z,27.93
2019-01-22T09:32:59.045Z,32.55
2019-01-22T09:35:51.349Z,40.58
2019-01-22T09:38:18.144Z,33.60
2019-01-22T09:40:44.901Z,37.42
2019-01-22T09:43:11.676Z,35.45
2019-01-22T09:45:38.553Z,28.30
2019-01-22T09:48:05.310Z,30.60
2019-01-22T09:50:32.138Z,32.15
2019-01-22T09:52:58.899Z,29.17
2019-01-22T09:55:25.683Z,33.70
2019-01-22T09:57:52.427Z,34.98
2019-01-22T10:00:19.214Z,29.53
2019-01-22T10:02:45.977Z,34.50
2019-01-22T10:05:12.757Z,34.83
2019-01-22T10:07:39.520Z,29.07
2019-01-22T10:10:09.859Z,33.28
2019-01-22T10:12:36.627Z,41.05
2019-01-22T10:15:04.346Z,38.73
2019-01-22T10:17:31.124Z,31.27
2019-01-22T10:19:57.904Z,33.13
2019-01-22T10:22:24.656Z,32.40
2019-01-22T10:24:51.429Z,27.53
2019-01-22T10:27:18.216Z,31.30
2019-01-22T10:29:44.996Z,32.93
2019-01-22T10:32:11.768Z,25.97
2019-01-22T10:34:38.511Z,29.90
2019-01-22T10:37:05.301Z,30.57
2019-01-22T10:39:32.083Z,26.07
2019-01-22T10:41:58.897Z,30.65
2019-01-22T10:44:25.649Z,29.60
2019-01-22T10:46:52.448Z,24.27
2019-01-22T10:49:19.224Z,28.15
2019-01-22T10:51:46.009Z,28.67
2019-01-22T10:54:12.781Z,25.60
2019-01-22T10:56:39.554Z,35.40
2019-01-22T10:59:06.507Z,30.60
2019-01-22T11:01:34.253Z,23.63
2019-01-22T11:04:01.037Z,27.70
2019-01-22T11:06:27.858Z,24.90
2019-01-22T11:08:54.648Z,27.10
2019-01-22T11:11:21.445Z,27.60
2019-01-22T11:13:48.229Z,27.10
2019-01-22T11:16:15.170Z,24.53
2019-01-22T11:18:41.802Z,27.40
2019-01-22T11:21:08.613Z,27.90
2019-01-22T11:23:35.402Z,24.57
2019-01-22T11:26:02.208Z,25.97
2019-01-22T11:28:29.011Z,26.20
2019-01-22T11:30:55.801Z,21.60
2019-01-22T11:33:22.568Z,24.98
2019-01-22T11:35:49.365Z,23.90
2019-01-22T11:38:16.141Z,24.80
2019-01-22T11:40:45.088Z,25.50
2019-01-22T11:43:11.889Z,22.40
2019-01-22T11:45:38.676Z,23.73
2019-01-22T11:48:07.097Z,27.10
2019-01-22T11:50:33.893Z,22.57
2019-01-22T11:53:00.786Z,24.60
2019-01-22T11:55:27.553Z,25.08
2019-01-22T11:57:54.362Z,21.47
2019-01-22T12:00:29.053Z,24.72
2019-01-22T12:02:55.862Z,21.10
2019-01-22T12:05:22.652Z,23.45
2019-01-22T12:07:49.446Z,25.95
2019-01-22T12:10:16.220Z,21.57
2019-01-22T12:12:43.040Z,25.75
2019-01-22T12:15:11.833Z,26.05
2019-01-22T12:17:38.621Z,22.37
2019-01-22T12:20:09.669Z,26.02
2019-01-22T12:22:36.466Z,26.30
2019-01-22T12:25:03.877Z,24.63
2019-01-22T12:27:30.689Z,26.65
2019-01-22T12:29:57.458Z,28.57
2019-01-22T12:32:24.265Z,24.33
2019-01-22T12:34:51.029Z,26.20
2019-01-22T12:37:17.866Z,36.10
2019-01-22T12:39:44.631Z,28.93
2019-01-22T12:42:11.462Z,29.65
2019-01-22T12:44:38.231Z,29.12
2019-01-22T12:47:05.031Z,26.47
2019-01-22T12:49:31.797Z,28.30
2019-01-22T12:51:58.584Z,28.70
2019-01-22T12:54:25.364Z,25.90
2019-01-22T12:56:52.137Z,27.48
2019-01-22T12:59:18.884Z,29.35
2019-01-22T13:01:45.661Z,27.15
2019-01-22T13:04:12.450Z,26.20
2019-01-22T13:06:39.212Z,28.40
2019-01-22T13:09:06.785Z,27.80
2019-01-22T13:11:33.601Z,28.60
2019-01-22T13:14:00.375Z,24.07
2019-01-22T13:16:27.164Z,28.02
2019-01-22T13:18:53.998Z,25.57
2019-01-22T13:21:22.829Z,27.07
2019-01-22T13:23:49.661Z,26.57
2019-01-22T13:26:16.434Z,27.93
2019-01-22T13:28:43.223Z,28.83
2019-01-22T13:31:12.005Z,25.37
2019-01-22T13:33:38.825Z,30.15
2019-01-22T13:36:05.611Z,29.30
2019-01-22T13:38:32.408Z,24.63
2019-01-22T13:40:59.195Z,27.95
2019-01-22T13:43:27.086Z,29.42
2019-01-22T13:45:53.886Z,25.20
2019-01-22T13:48:22.277Z,29.55
2019-01-22T13:50:49.068Z,26.57
2019-01-22T13:53:15.857Z,29.85
2019-01-22T13:55:42.633Z,32.38
2019-01-22T13:58:09.446Z,26.60
2019-01-22T14:00:36.228Z,30.15
2019-01-22T14:03:03.066Z,31.33
2019-01-22T14:05:29.874Z,27.10
2019-01-22T14:07:56.723Z,31.40
2019-01-22T14:10:23.498Z,33.00
2019-01-22T14:12:50.298Z,27.30
2019-01-22T14:15:20.418Z,29.50
2019-01-22T14:17:47.231Z,26.37
2019-01-22T14:20:14.194Z,29.98
2019-01-22T14:22:40.994Z,26.13
2019-01-22T14:25:09.475Z,28.90
2019-01-22T14:27:36.321Z,31.02
2019-01-22T14:30:04.027Z,28.00
2019-01-22T14:32:42.427Z,30.63
2019-01-22T14:35:09.250Z,30.72
2019-01-22T14:37:36.080Z,31.37
2019-01-22T14:40:02.873Z,25.70
2019-01-22T14:42:29.673Z,30.45
2019-01-22T14:44:56.449Z,27.30
2019-01-22T14:47:23.226Z,29.45
2019-01-22T14:49:50.018Z,31.15
2019-01-22T14:52:16.854Z,30.48
2019-01-22T14:54:43.657Z,30.62
2019-01-22T14:57:13.815Z,26.93
2019-01-22T14:59:40.621Z,28.35
2019-01-22T15:02:07.431Z,28.87
2019-01-22T15:04:35.257Z,24.67
2019-01-22T15:07:02.063Z,26.42
2019-01-22T15:09:28.877Z,22.60
2019-01-22T15:11:55.653Z,24.57
2019-01-22T15:14:22.597Z,20.45
2019-01-22T15:16:49.458Z,16.30
2019-01-22T15:19:16.232Z,18.37
2019-01-22T15:21:42.996Z,17.85
2019-01-22T15:24:10.128Z,16.60
2019-01-22T15:26:39.561Z,16.20
2019-01-22T15:29:04.026Z,14.70
2019-01-22T15:31:30.888Z,15.65
2019-01-22T15:33:58.133Z,14.73
2019-01-22T15:36:27.206Z,15.98
2019-01-22T15:38:54.883Z,23.63
2019-01-22T15:41:28.626Z,18.27
2019-01-22T15:43:55.570Z,14.53
2019-01-22T15:46:22.944Z,13.10
2019-01-22T15:48:50.063Z,14.28
2019-01-22T15:51:16.858Z,12.43
2019-01-22T15:53:43.697Z,15.10
2019-01-22T15:56:10.553Z,13.83
2019-01-22T15:58:37.492Z,14.70
2019-01-22T16:01:04.309Z,14.13
2019-01-22T16:03:31.220Z,12.40
2019-01-22T16:05:58.094Z,13.50
2019-01-22T16:08:24.898Z,14.15
2019-01-22T16:10:51.897Z,13.87
2019-01-22T16:13:18.908Z,14.78
2019-01-22T16:15:45.737Z,13.23
2019-01-22T16:18:12.653Z,12.88
2019-01-22T16:20:39.453Z,13.10
2019-01-22T16:23:07.314Z,11.40
2019-01-22T16:25:34.085Z,13.50
2019-01-22T16:28:00.943Z,14.68
2019-01-22T16:30:29.913Z,13.23
2019-01-22T16:32:56.764Z,13.48
2019-01-22T16:35:24.985Z,12.63
2019-01-22T16:37:52.062Z,13.83
2019-01-22T16:40:18.863Z,14.57
2019-01-22T16:42:45.928Z,15.25
2019-01-22T16:45:34.119Z,13.40
2019-01-22T16:48:00.965Z,15.75
2019-01-22T16:50:29.684Z,14.98
2019-01-22T16:52:56.497Z,15.17
2019-01-22T16:55:26.480Z,19.20
2019-01-22T16:57:53.386Z,17.20
2019-01-22T17:00:22.819Z,16.52
2019-01-22T17:02:49.645Z,15.03
2019-01-22T17:05:16.537Z,17.00
2019-01-22T17:07:43.374Z,19.20
2019-01-22T17:10:11.888Z,14.47
2019-01-22T17:12:38.693Z,18.02
2019-01-22T17:15:06.462Z,17.70
2019-01-22T17:17:33.306Z,16.70
2019-01-22T17:20:00.153Z,18.35
2019-01-22T17:22:26.963Z,19.32
2019-01-22T17:24:53.799Z,16.20
2019-01-22T17:27:20.577Z,19.30
2019-01-22T17:29:47.374Z,19.50
2019-01-22T17:32:23.281Z,20.90
2019-01-22T17:34:52.250Z,27.50
2019-01-22T17:37:22.166Z,20.48
2019-01-22T17:39:48.997Z,18.10
2019-01-22T17:42:15.838Z,19.27
2019-01-22T17:44:42.652Z,20.35
2019-01-22T17:47:09.640Z,16.30
2019-01-22T17:49:37.580Z,18.77
2019-01-22T17:52:04.504Z,20.60
2019-01-22T17:54:31.313Z,17.13
2019-01-22T17:56:59.177Z,20.08
2019-01-22T17:59:26.017Z,20.80
2019-01-22T18:01:52.838Z,17.43
2019-01-22T18:04:20.637Z,19.60
2019-01-22T18:06:47.472Z,19.87
2019-01-22T18:09:16.312Z,17.83
2019-01-22T18:11:43.097Z,19.15
2019-01-22T18:14:09.964Z,20.57
2019-01-22T18:16:36.778Z,18.53
2019-01-22T18:19:03.753Z,20.72
2019-01-22T18:21:30.545Z,21.73
2019-01-22T18:23:57.362Z,20.70
2019-01-22T18:26:24.165Z,22.80
2019-01-22T18:28:50.969Z,21.25
2019-01-22T18:31:17.800Z,19.00
2019-01-22T18:33:44.637Z,19.00
2019-01-22T18:36:11.485Z,20.72
2019-01-22T18:38:38.290Z,17.67
2019-01-22T18:41:05.124Z,22.07
2019-01-22T18:43:31.937Z,21.60
2019-01-22T18:45:58.781Z,20.97
2019-01-22T18:48:25.588Z,19.62
2019-01-22T18:50:52.669Z,20.55
2019-01-22T18:53:19.461Z,18.07
2019-01-22T18:55:46.301Z,21.80
2019-01-22T18:58:15.213Z,21.37
2019-01-22T19:00:42.021Z,19.80
2019-01-22T19:03:08.821Z,22.20
2019-01-22T19:05:35.662Z,22.85
2019-01-22T19:08:09.094Z,18.80
2019-01-22T19:10:35.701Z,21.30
2019-01-22T19:13:02.645Z,20.15
2019-01-22T19:15:30.265Z,18.63
2019-01-22T19:17:57.327Z,20.60
2019-01-22T19:20:24.390Z,21.02
2019-01-22T19:22:51.321Z,19.33
2019-01-22T19:25:20.304Z,20.92
2019-01-22T19:27:47.605Z,21.80
2019-01-22T19:30:16.737Z,21.85
2019-01-22T19:32:44.027Z,17.13
2019-01-22T19:35:11.362Z,21.00
2019-01-22T19:37:38.539Z,18.00
2019-01-22T19:40:07.444Z,21.77
2019-01-22T19:42:34.508Z,22.50
2019-01-22T19:45:01.318Z,20.77
2019-01-22T19:47:28.349Z,21.65
2019-01-22T19:49:55.124Z,23.02
2019-01-22T19:52:21.940Z,19.23
2019-01-22T19:54:48.722Z,23.20
2019-01-22T19:57:15.515Z,23.67
2019-01-22T19:59:42.314Z,20.63
2019-01-22T20:02:09.120Z,24.10
2019-01-22T20:04:35.951Z,25.00
2019-01-22T20:07:02.785Z,22.23
2019-01-22T20:09:29.557Z,25.72
2019-01-22T20:11:56.362Z,25.50
2019-01-22T20:14:23.150Z,22.83
2019-01-22T20:16:49.963Z,26.23
2019-01-22T20:19:16.786Z,29.10
2019-01-22T20:21:43.601Z,22.07
2019-01-22T20:24:10.377Z,26.40
2019-01-22T20:26:37.219Z,28.50
2019-01-22T20:29:04.053Z,22.10
2019-01-22T20:31:30.886Z,27.05
2019-01-22T20:33:57.701Z,26.68
2019-01-22T20:36:24.609Z,21.20
2019-01-22T20:38:51.521Z,26.82
2019-01-22T20:41:18.323Z,26.70
2019-01-22T20:43:45.110Z,23.60
2019-01-22T20:46:11.911Z,24.87
2019-01-22T20:48:38.753Z,25.25
2019-01-22T20:51:05.585Z,21.43
2019-01-22T20:53:32.373Z,23.47
2019-01-22T20:55:59.224Z,25.23
2019-01-22T20:58:26.013Z,21.33
2019-01-22T21:00:52.881Z,23.45
2019-01-22T21:03:19.714Z,23.52
2019-01-22T21:05:46.529Z,23.98
2019-01-22T21:08:13.440Z,20.10
2019-01-22T21:10:40.231Z,25.15
2019-01-22T21:13:07.047Z,23.85
2019-01-22T21:15:33.856Z,22.23
2019-01-22T21:18:00.653Z,24.40
2019-01-22T21:20:27.553Z,25.70
2019-01-22T21:22:59.135Z,22.03
2019-01-22T21:25:25.945Z,25.93
2019-01-22T21:27:52.762Z,26.35
2019-01-22T21:30:25.366Z,24.20
2019-01-22T21:32:52.182Z,27.17
2019-01-22T21:35:18.997Z,27.10
2019-01-22T21:37:45.809Z,27.90
2019-01-22T21:40:12.621Z,25.17
2019-01-22T21:42:39.449Z,26.90
2019-01-22T21:45:08.975Z,29.05
2019-01-22T21:47:35.741Z,25.47
2019-01-22T21:50:02.769Z,27.15
2019-01-22T21:52:29.560Z,25.80
2019-01-22T21:54:56.376Z,23.20
2019-01-22T21:57:23.193Z,25.55
2019-01-22T21:59:49.993Z,26.37
2019-01-22T22:02:16.851Z,24.37
2019-01-22T22:04:43.637Z,22.10
2019-01-22T22:07:10.434Z,25.85
2019-01-22T22:09:37.201Z,26.35
2019-01-22T22:12:04.008Z,24.00
2019-01-22T22:14:30.792Z,26.60
2019-01-22T22:16:57.585Z,22.80
2019-01-22T22:19:24.349Z,25.60
2019-01-22T22:21:51.120Z,26.80
2019-01-22T22:24:17.884Z,27.35
2019-01-22T22:26:44.701Z,23.23
2019-01-22T22:29:11.444Z,25.40
2019-01-22T22:31:38.198Z,27.02
2019-01-22T22:34:04.977Z,21.23
2019-01-22T22:36:31.745Z,26.20
2019-01-22T22:38:58.545Z,26.73
2019-01-22T22:41:25.310Z,20.33
2019-01-22T22:43:52.154Z,25.85
2019-01-22T22:46:18.913Z,26.90
2019-01-22T22:48:45.700Z,24.70
2019-01-22T22:51:12.505Z,26.37
2019-01-22T22:53:39.277Z,27.90
2019-01-22T22:56:06.049Z,23.90
2019-01-22T22:58:32.841Z,27.95
2019-01-22T23:01:23.673Z,27.60
2019-01-22T23:03:50.492Z,23.57
2019-01-22T23:06:17.265Z,27.07
2019-01-22T23:08:44.049Z,27.98
2019-01-22T23:11:10.829Z,24.00
2019-01-22T23:13:37.613Z,28.87
2019-01-22T23:16:04.407Z,28.17
2019-01-22T23:18:31.201Z,24.50
2019-01-22T23:20:57.978Z,28.80
2019-01-22T23:23:24.756Z,30.60
2019-01-22T23:25:51.513Z,31.40
2019-01-22T23:28:18.320Z,23.70
2019-01-22T23:30:45.105Z,27.22
2019-01-22T23:33:11.893Z,29.20
2019-01-22T23:35:38.751Z,23.70
2019-01-22T23:38:05.526Z,27.30
2019-01-22T23:40:32.312Z,24.53
2019-01-22T23:42:59.124Z,27.65
2019-01-22T23:45:25.925Z,27.90
2019-01-22T23:47:52.764Z,23.60
2019-01-22T23:50:19.619Z,27.37
2019-01-22T23:52:46.413Z,27.20
2019-01-22T23:55:13.204Z,24.00
2019-01-22T23:57:40.060Z,27.45
